Time;durP1;ratioP1;P1;durP2;ratioP2;P2;SDS_P1;SDS_P2;PMS_P1;PMS_P2;Temp;Humidity;BMP_temperature;BMP_pressure;BME280_temperature;BME280_humidity;BME280_pressure;Samples;Min_cycle;Max_cycle;Signal;HPM_P1;HPM_P2
2023/10/08 00:00:49;;;;;;;7.32;2.95;;;;;;;16.67;76.78;102201.00;4937131;29;20047;-80
2023/10/08 00:03:16;;;;;;;7.97;2.88;;;;;;;16.67;76.66;102194.88;4948578;28;20027;-80
2023/10/08 00:05:41;;;;;;;5.43;2.90;;;;;;;16.64;76.39;102195.84;4938154;29;20034;-80
2023/10/08 00:08:09;;;;;;;6.78;3.03;;;;;;;16.63;76.33;102199.38;4938036;29;20023;-80
2023/10/08 00:10:39;;;;;;;7.40;3.42;;;;;;;16.62;76.42;102196.78;4936629;29;20023;-80
2023/10/08 00:13:07;;;;;;;8.00;3.00;;;;;;;16.61;76.56;102200.31;4954854;29;20027;-80
2023/10/08 00:15:35;;;;;;;7.68;3.00;;;;;;;16.59;76.28;102200.38;4953639;29;20023;-80
2023/10/08 00:18:01;;;;;;;7.93;3.00;;;;;;;16.58;76.64;102203.03;4949198;28;20082;-80
2023/10/08 00:20:28;;;;;;;8.73;2.67;;;;;;;16.56;76.76;102204.88;4951858;28;20031;-80
2023/10/08 00:22:56;;;;;;;6.45;2.80;;;;;;;16.54;76.73;102211.03;4949161;28;20114;-80
2023/10/08 00:25:21;;;;;;;7.88;3.13;;;;;;;16.54;76.58;102215.41;4950423;29;20483;-80
2023/10/08 00:27:50;;;;;;;9.88;2.47;;;;;;;16.52;76.81;102218.09;4950833;29;20090;-80
2023/10/08 00:30:17;;;;;;;4.82;2.53;;;;;;;16.48;77.08;102211.19;4934830;29;20056;-80
2023/10/08 00:32:43;;;;;;;7.03;2.70;;;;;;;16.47;77.18;102211.25;4950772;28;20086;-80
2023/10/08 00:35:13;;;;;;;6.60;2.88;;;;;;;16.44;76.80;102209.56;4944842;28;20055;-80
2023/10/08 00:37:40;;;;;;;17.40;4.47;;;;;;;16.42;77.21;102211.34;4953912;29;20494;-80
2023/10/08 00:40:12;;;;;;;6.07;2.60;;;;;;;16.39;77.31;102207.06;4955071;28;20549;-80
2023/10/08 00:42:40;;;;;;;9.05;2.88;;;;;;;16.36;76.90;102204.50;4941271;28;20111;-80
2023/10/08 00:45:06;;;;;;;8.13;2.67;;;;;;;16.32;77.31;102208.13;4935844;28;20051;-80
2023/10/08 00:47:37;;;;;;;8.90;2.97;;;;;;;16.30;76.93;102222.22;4953604;29;20034;-80
2023/10/08 00:50:09;;;;;;;6.22;2.65;;;;;;;16.26;77.44;102216.19;4955062;28;20082;-80
2023/10/08 00:52:45;;;;;;;5.82;2.83;;;;;;;16.22;77.62;102219.78;4943828;28;20494;-80
2023/10/08 00:55:20;;;;;;;7.10;2.70;;;;;;;16.19;77.41;102226.00;4937417;28;20028;-80
2023/10/08 00:57:49;;;;;;;7.68;3.00;;;;;;;16.15;77.55;102237.50;4952411;29;20490;-80
2023/10/08 01:00:21;;;;;;;7.50;2.88;;;;;;;16.14;77.73;102211.28;4938266;29;20529;-80
2023/10/08 01:02:49;;;;;;;5.90;2.88;;;;;;;16.10;77.81;102212.25;4952471;29;20355;-80
2023/10/08 01:05:21;;;;;;;7.05;2.47;;;;;;;16.07;77.96;102221.94;4942490;29;20383;-80
2023/10/08 01:07:51;;;;;;;6.28;2.70;;;;;;;16.05;77.94;102218.50;4953180;29;20100;-80
2023/10/08 01:10:20;;;;;;;11.55;2.90;;;;;;;16.02;78.17;102217.72;4953298;29;20557;-80
2023/10/08 01:13:05;;;;;;;7.25;2.85;;;;;;;16.01;78.32;102206.34;4947571;28;20015;-80
2023/10/08 01:15:30;;;;;;;7.75;2.60;;;;;;;15.99;78.38;102215.16;4938557;28;20163;-80
2023/10/08 01:18:04;;;;;;;7.72;2.67;;;;;;;15.96;78.14;102208.25;4937121;29;20114;-80
2023/10/08 01:20:33;;;;;;;7.93;2.80;;;;;;;15.95;78.48;102210.91;4939277;29;20027;-80
2023/10/08 01:23:13;;;;;;;9.27;2.97;;;;;;;15.92;78.33;102207.44;4938480;29;20032;-80
2023/10/08 01:25:42;;;;;;;7.60;2.60;;;;;;;15.89;78.45;102197.03;4953914;29;20031;-80
2023/10/08 01:28:09;;;;;;;6.35;2.78;;;;;;;15.86;78.62;102193.63;4954124;28;20038;-80
2023/10/08 01:30:41;;;;;;;5.82;2.60;;;;;;;15.81;78.48;102191.09;4952031;28;20046;-80
2023/10/08 01:33:11;;;;;;;6.38;2.80;;;;;;;15.80;78.51;102189.38;4947114;28;20495;-80
2023/10/08 01:35:36;;;;;;;7.68;3.03;;;;;;;15.77;78.55;102176.34;4951828;29;20027;-80
2023/10/08 01:38:03;;;;;;;6.07;2.65;;;;;;;15.76;78.85;102179.84;4950148;28;20030;-80
2023/10/08 01:40:30;;;;;;;6.85;2.83;;;;;;;15.73;78.74;102185.19;4939480;28;20154;-80
2023/10/08 01:43:05;;;;;;;9.88;3.10;;;;;;;15.70;78.95;102185.28;4934970;29;20078;-80
2023/10/08 01:45:32;;;;;;;7.07;2.72;;;;;;;15.68;79.32;102184.47;4934895;29;20031;-80
2023/10/08 01:47:57;;;;;;;6.97;2.85;;;;;;;15.65;79.28;102181.91;4933632;29;20086;-80
2023/10/08 01:50:25;;;;;;;11.43;3.30;;;;;;;15.63;79.27;102190.69;4943486;29;20038;-80
2023/10/08 01:52:51;;;;;;;6.47;3.10;;;;;;;15.61;79.28;102197.72;4952443;28;20078;-80
2023/10/08 01:55:19;;;;;;;7.15;2.83;;;;;;;15.61;79.32;102192.47;4953927;28;20027;-80
2023/10/08 01:57:48;;;;;;;12.52;3.50;;;;;;;15.60;79.32;102195.16;4952506;28;20038;-80
2023/10/08 02:00:19;;;;;;;7.95;3.40;;;;;;;15.59;79.15;102206.53;4949021;28;20491;-80
2023/10/08 02:02:50;;;;;;;6.70;2.72;;;;;;;15.57;79.31;102216.19;4942415;28;20035;-80
2023/10/08 02:05:18;;;;;;;6.30;3.05;;;;;;;15.55;79.29;102213.59;4949361;28;20436;-80
2023/10/08 02:07:47;;;;;;;7.45;3.10;;;;;;;15.53;79.16;102210.19;4943720;29;20055;-80
2023/10/08 02:10:14;;;;;;;10.52;3.55;;;;;;;15.53;79.48;102222.41;4952803;28;20019;-80
2023/10/08 02:12:40;;;;;;;9.50;3.08;;;;;;;15.49;79.82;102229.50;4947070;28;20030;-80
2023/10/08 02:15:06;;;;;;;11.10;3.70;;;;;;;15.47;79.46;102215.56;4949852;29;20058;-80
2023/10/08 02:17:32;;;;;;;7.90;3.30;;;;;;;15.45;79.61;102206.88;4938272;29;20055;-80
2023/10/08 02:19:57;;;;;;;9.82;3.20;;;;;;;15.43;79.93;102193.81;4944085;29;20035;-80
2023/10/08 02:22:23;;;;;;;5.78;2.90;;;;;;;15.40;80.05;102206.09;4950859;28;20090;-80
2023/10/08 02:24:50;;;;;;;7.63;2.97;;;;;;;15.38;80.08;102215.78;4953496;29;20074;-80
2023/10/08 02:27:16;;;;;;;8.23;3.10;;;;;;;15.36;80.38;102214.97;4951714;29;20471;-80
2023/10/08 02:29:42;;;;;;;8.10;3.30;;;;;;;15.33;80.67;102214.13;4948571;28;20098;-80
2023/10/08 02:32:07;;;;;;;7.95;3.25;;;;;;;15.33;80.79;102208.03;4935774;29;20055;-80
2023/10/08 02:34:33;;;;;;;7.50;3.45;;;;;;;15.31;80.65;102212.44;4934424;29;20042;-80
2023/10/08 02:36:59;;;;;;;6.38;3.10;;;;;;;15.32;80.61;102219.41;4949360;29;20074;-80
2023/10/08 02:39:29;;;;;;;7.47;3.20;;;;;;;15.30;81.10;102218.56;4948585;29;20031;-80
2023/10/08 02:41:59;;;;;;;7.70;3.45;;;;;;;15.28;81.19;102223.03;4938616;29;20031;-80
2023/10/08 02:44:25;;;;;;;6.57;2.90;;;;;;;15.26;81.33;102230.91;4955297;28;20110;-80
2023/10/08 02:46:51;;;;;;;7.18;3.17;;;;;;;15.26;81.38;102244.00;4957368;28;20035;-80
2023/10/08 02:49:20;;;;;;;5.78;2.88;;;;;;;15.25;81.25;102239.66;4957193;28;20386;-80
2023/10/08 02:51:46;;;;;;;7.65;3.38;;;;;;;15.25;81.73;102239.66;4939392;28;20025;-80
2023/10/08 02:54:23;;;;;;;6.78;3.17;;;;;;;15.24;81.74;102243.19;4951567;29;20113;-80
2023/10/08 02:56:57;;;;;;;8.48;3.60;;;;;;;15.23;82.17;102254.56;4941200;29;20035;-80
2023/10/08 02:59:24;;;;;;;7.68;3.00;;;;;;;15.23;82.05;102253.72;4952952;29;20023;-80
2023/10/08 03:01:52;;;;;;;8.10;3.22;;;;;;;15.23;82.16;102254.56;4947209;28;20035;-80
2023/10/08 03:04:18;;;;;;;7.65;3.20;;;;;;;15.21;82.42;102243.25;4954965;28;20062;-80
2023/10/08 03:06:50;;;;;;;8.10;3.33;;;;;;;15.21;82.33;102243.25;4956546;28;20023;-79
2023/10/08 03:09:20;;;;;;;9.00;3.40;;;;;;;15.20;82.52;102225.78;4945958;28;20452;-80
2023/10/08 03:11:48;;;;;;;6.47;3.10;;;;;;;15.17;82.49;102223.25;4954967;29;20059;-80
2023/10/08 03:14:15;;;;;;;6.50;3.08;;;;;;;15.15;82.63;102230.31;4956313;28;20031;-80
2023/10/08 03:16:41;;;;;;;7.70;3.33;;;;;;;15.14;82.67;102229.41;4953306;28;20071;-80
2023/10/08 03:19:06;;;;;;;8.80;3.20;;;;;;;15.11;82.93;102231.25;4949629;28;20480;-80
2023/10/08 03:24:12;;;;;;;;;;;;;;;15.15;81.68;102236.38;4951065;29;20035;-80
2023/10/08 03:26:39;;;;;;;8.82;3.20;;;;;;;15.08;83.08;102239.19;4955911;28;19929;-80
2023/10/08 03:29:14;;;;;;;9.10;3.15;;;;;;;15.07;83.52;102258.41;4955447;28;20066;-80
2023/10/08 03:34:15;;;;;;;10.90;3.38;;;;;;;15.06;83.44;102261.94;4953125;29;20034;-80
2023/10/08 03:36:44;;;;;;;7.93;3.35;;;;;;;15.06;83.53;102248.84;4954439;28;20090;-80
2023/10/08 03:39:14;;;;;;;7.20;2.95;;;;;;;15.02;83.59;102246.31;4942206;28;20023;-80
2023/10/08 03:41:40;;;;;;;8.50;3.53;;;;;;;14.99;83.80;102240.25;4941655;29;20031;-80
2023/10/08 03:44:13;;;;;;;6.75;3.15;;;;;;;14.98;83.92;102256.88;4945523;29;20073;-80
2023/10/08 03:46:40;;;;;;;9.80;3.15;;;;;;;14.96;83.91;102272.63;4953279;29;20054;-80
2023/10/08 03:49:15;;;;;;;6.75;3.50;;;;;;;14.97;84.14;102255.13;4954343;28;20483;-80
2023/10/08 03:51:41;;;;;;;7.78;3.35;;;;;;;14.94;84.16;102256.06;4953095;29;20027;-80
2023/10/08 03:54:15;;;;;;;7.72;2.80;;;;;;;14.93;84.39;102256.97;4950747;28;20023;-80
2023/10/08 03:56:45;;;;;;;8.27;3.28;;;;;;;14.93;84.55;102264.84;4949928;29;20048;-80
2023/10/08 03:59:29;;;;;;;7.30;3.28;;;;;;;14.93;84.41;102277.09;4949966;29;20479;-80
2023/10/08 04:01:59;;;;;;;7.85;3.67;;;;;;;14.92;84.94;102252.63;4948757;28;20027;-79
2023/10/08 04:04:48;;;;;;;5.97;3.50;;;;;;;14.91;84.66;102248.28;4948059;29;20315;-80
2023/10/08 04:07:26;;;;;;;8.48;3.38;;;;;;;14.88;84.90;102245.72;4955321;29;20043;-80
2023/10/08 04:10:05;;;;;;;8.32;3.35;;;;;;;14.85;85.08;102253.66;4954257;29;20057;-80
2023/10/08 04:12:34;;;;;;;7.07;3.30;;;;;;;14.84;85.16;102258.03;4946444;29;20159;-80
2023/10/08 04:15:00;;;;;;;12.25;3.47;;;;;;;14.82;85.22;102262.44;4953344;29;20406;-80
2023/10/08 04:17:25;;;;;;;8.18;3.40;;;;;;;14.85;85.61;102266.78;4951512;28;20494;-80
2023/10/08 04:19:51;;;;;;;7.93;3.67;;;;;;;14.84;85.39;102263.28;4954219;29;20031;-80
2023/10/08 04:22:18;;;;;;;7.50;3.55;;;;;;;14.82;85.34;102262.44;4942756;28;20482;-80
2023/10/08 04:24:43;;;;;;;7.25;3.28;;;;;;;14.81;85.60;102273.81;4954911;28;20035;-80
2023/10/08 04:27:09;;;;;;;9.63;4.10;;;;;;;14.80;85.55;102287.78;4944196;28;20051;-80
2023/10/08 04:29:37;;;;;;;8.75;3.55;;;;;;;14.81;85.30;102283.44;4936189;29;20209;-80
2023/10/08 04:32:11;;;;;;;9.68;3.75;;;;;;;14.81;85.59;102288.69;4951850;29;20075;-80
2023/10/08 04:34:37;;;;;;;9.77;3.45;;;;;;;14.81;85.52;102283.44;4943712;29;20038;-80
2023/10/08 04:37:04;;;;;;;9.55;3.75;;;;;;;14.80;85.93;102286.94;4936383;29;20032;-80
2023/10/08 04:39:33;;;;;;;10.07;4.10;;;;;;;14.80;85.94;102287.78;4951695;29;20162;-80
2023/10/08 04:42:13;;;;;;;8.57;3.47;;;;;;;14.81;85.70;102291.31;4941484;28;20394;-80
2023/10/08 04:44:39;;;;;;;8.52;3.67;;;;;;;14.80;85.92;102310.53;4943367;28;20490;-80
2023/10/08 04:47:06;;;;;;;6.40;3.30;;;;;;;14.80;86.05;102316.63;4955049;28;20098;-80
2023/10/08 04:49:34;;;;;;;7.65;3.50;;;;;;;14.79;85.90;102324.53;4942059;28;20095;-80
2023/10/08 04:52:14;;;;;;;6.63;3.65;;;;;;;14.78;86.04;102320.16;4943906;29;20503;-80
2023/10/08 04:54:41;;;;;;;7.63;3.50;;;;;;;14.77;86.07;102328.91;4952247;29;20031;-80
2023/10/08 04:57:14;;;;;;;6.35;3.65;;;;;;;14.75;86.18;102315.88;4942921;28;20034;-80
2023/10/08 04:59:41;;;;;;;7.25;3.40;;;;;;;14.72;86.54;102311.53;4941232;29;20043;-80
2023/10/08 05:02:19;;;;;;;7.78;3.45;;;;;;;14.70;86.49;102313.31;4941912;29;20027;-80
2023/10/08 05:07:21;;;;;;;8.77;3.70;;;;;;;14.67;86.88;102315.09;4950645;28;20582;-80
2023/10/08 05:12:37;;;;;;;7.57;3.38;;;;;;;14.65;87.43;102323.00;4944452;28;20054;-80
2023/10/08 05:15:33;;;;;;;6.65;3.60;;;;;;;14.64;87.42;102323.91;4937665;29;20023;-80
2023/10/08 05:17:58;;;;;;;8.48;3.35;;;;;;;14.65;87.24;102320.38;4949083;28;20099;-80
2023/10/08 05:20:40;;;;;;;7.30;4.00;;;;;;;14.63;87.38;102322.16;4953394;29;20031;-80
2023/10/08 05:28:36;;;;;;;7.78;4.10;;;;;;;14.58;88.20;102324.00;4954050;28;20102;-80
2023/10/08 05:41:52;;;;;;;8.40;3.58;;;;;;;14.41;88.96;102295.53;4947915;29;20045;-80
2023/10/08 05:47:06;;;;;;;11.52;4.22;;;;;;;14.34;88.67;102300.00;4949975;28;20035;-80
2023/10/08 06:05:22;;;;;;;8.75;3.92;;;;;;;14.33;89.47;102305.25;4939155;29;20052;-80
2023/10/08 06:13:10;;;;;;;8.80;3.80;;;;;;;14.32;89.26;102321.84;4946046;28;20094;-80
2023/10/08 06:15:48;;;;;;;7.28;3.55;;;;;;;14.34;89.68;102335.78;4943585;28;20038;-80
2023/10/08 06:18:28;;;;;;;9.32;3.90;;;;;;;14.35;89.55;102330.50;4946049;28;20039;-80
2023/10/08 06:20:54;;;;;;;7.20;3.63;;;;;;;14.37;89.48;102339.22;4945671;28;20497;-80
2023/10/08 06:23:22;;;;;;;11.40;3.90;;;;;;;14.35;89.72;102338.38;4938410;29;20031;-80
2023/10/08 06:26:05;;;;;;;10.50;3.97;;;;;;;14.36;89.35;102345.31;4951216;29;20031;-80
2023/10/08 06:28:34;;;;;;;8.65;3.90;;;;;;;14.38;89.28;102338.31;4942105;29;20028;-80
2023/10/08 06:31:01;;;;;;;7.43;3.50;;;;;;;14.39;89.36;102334.81;4937025;29;20047;-80
2023/10/08 06:33:30;;;;;;;7.15;3.67;;;;;;;14.39;88.91;102329.56;4950977;29;20027;-80
2023/10/08 06:36:02;;;;;;;8.52;3.92;;;;;;;14.38;88.81;102333.06;4946952;29;20036;-80
2023/10/08 06:38:33;;;;;;;9.13;3.92;;;;;;;14.39;89.04;102337.44;4972042;28;20398;-80
2023/10/08 06:41:00;;;;;;;9.48;3.80;;;;;;;14.39;88.92;102334.81;4944298;28;20040;-79
2023/10/08 06:43:26;;;;;;;7.43;3.50;;;;;;;14.40;89.14;102344.41;4957052;28;20028;-80
2023/10/08 06:45:52;;;;;;;10.65;3.88;;;;;;;14.40;89.00;102344.41;4957193;28;20092;-80
2023/10/08 06:48:23;;;;;;;7.50;3.72;;;;;;;14.42;89.49;102340.00;4953966;28;20048;-80
2023/10/08 06:50:49;;;;;;;9.07;4.00;;;;;;;14.44;89.16;102352.19;4942512;29;20031;-80
2023/10/08 06:53:17;;;;;;;7.40;3.63;;;;;;;14.44;89.81;102365.28;4945003;28;20043;-80
2023/10/08 06:55:44;;;;;;;8.98;3.90;;;;;;;14.45;89.99;102385.34;4952553;29;20066;-80
2023/10/08 06:58:11;;;;;;;10.15;3.58;;;;;;;14.44;90.13;102392.31;4946272;28;20059;-80
2023/10/08 07:00:42;;;;;;;9.40;3.88;;;;;;;14.42;89.74;102389.75;4950277;29;20054;-80
2023/10/08 07:03:10;;;;;;;12.93;4.00;;;;;;;14.42;89.95;102402.00;4951482;29;20042;-80
2023/10/08 07:05:40;;;;;;;16.15;4.28;;;;;;;14.42;90.48;102404.59;4946909;29;20110;-80
2023/10/08 07:08:06;;;;;;;15.98;4.40;;;;;;;14.42;90.92;102397.59;4947045;28;20377;-80
2023/10/08 07:10:34;;;;;;;13.02;4.25;;;;;;;14.46;90.43;102387.94;4955235;28;20026;-80
2023/10/08 07:12:59;;;;;;;8.48;3.70;;;;;;;14.49;90.63;102392.28;4948690;29;20047;-80
2023/10/08 07:15:26;;;;;;;11.07;4.25;;;;;;;14.53;90.33;102394.81;4946685;29;20105;-80
2023/10/08 07:17:51;;;;;;;13.23;4.32;;;;;;;14.54;89.62;102379.94;4954330;28;20024;-79
2023/10/08 07:20:21;;;;;;;9.43;4.45;;;;;;;14.56;89.66;102388.63;4940712;28;20019;-80
2023/10/08 07:22:53;;;;;;;10.80;4.28;;;;;;;14.61;90.11;102401.66;4939483;29;20099;-80
2023/10/08 07:25:22;;;;;;;13.48;4.75;;;;;;;14.63;90.60;102390.28;4956766;29;20027;-80
2023/10/08 07:27:47;;;;;;;11.63;4.60;;;;;;;14.67;90.08;102391.94;4945986;28;20031;-80
2023/10/08 07:30:13;;;;;;;9.38;4.40;;;;;;;14.71;90.06;102388.38;4949167;28;20380;-80
2023/10/08 07:32:39;;;;;;;11.45;4.80;;;;;;;14.72;89.81;102392.75;4943297;28;20015;-80
2023/10/08 07:37:47;;;;;;;8.23;4.53;;;;;;;14.77;90.52;102404.91;4945828;29;20027;-80
2023/10/08 07:40:15;;;;;;;7.53;4.32;;;;;;;14.78;91.38;102409.25;4956032;28;20041;-80
2023/10/08 07:42:40;;;;;;;9.15;4.95;;;;;;;14.80;91.09;102404.84;4948099;28;20102;-80
2023/10/08 07:45:06;;;;;;;9.93;5.00;;;;;;;14.81;91.29;102403.97;4949001;28;20635;-80
2023/10/08 07:47:31;;;;;;;9.25;4.88;;;;;;;14.81;91.28;102415.28;4946200;29;20498;-80
2023/10/08 07:49:58;;;;;;;10.75;4.93;;;;;;;14.82;91.12;102414.41;4947968;29;20031;-80
2023/10/08 07:52:24;;;;;;;8.65;4.88;;;;;;;14.83;91.36;102412.66;4951908;29;20439;-80
2023/10/08 07:54:49;;;;;;;9.98;4.95;;;;;;;14.85;91.41;102416.13;4948377;29;20023;-80
2023/10/08 07:57:18;;;;;;;10.93;5.03;;;;;;;14.89;91.69;102427.41;4951179;28;20125;-80
2023/10/08 07:59:48;;;;;;;9.77;5.18;;;;;;;14.90;92.19;102424.72;4946594;29;20035;-80
2023/10/08 08:02:15;;;;;;;10.45;5.18;;;;;;;14.92;91.88;102422.97;4945602;28;20031;-80
2023/10/08 08:04:50;;;;;;;12.25;5.45;;;;;;;14.95;91.94;102427.25;4948176;28;20023;-80
2023/10/08 08:07:16;;;;;;;9.27;4.97;;;;;;;14.99;92.25;102434.19;4952107;28;20034;-80
2023/10/08 08:09:52;;;;;;;11.95;5.22;;;;;;;15.05;92.50;102438.44;4966968;28;20023;-80
2023/10/08 08:12:19;;;;;;;10.43;5.60;;;;;;;15.09;92.65;102441.00;4950983;28;20035;-80
2023/10/08 08:14:45;;;;;;;11.30;5.38;;;;;;;15.14;92.85;102433.03;4953251;28;20475;-80
2023/10/08 08:17:13;;;;;;;10.98;5.60;;;;;;;15.20;92.83;102440.75;4945419;29;20387;-79
2023/10/08 08:19:44;;;;;;;9.98;5.18;;;;;;;15.26;92.53;102438.03;4948512;28;20042;-81
2023/10/08 08:22:15;;;;;;;8.88;5.20;;;;;;;15.33;92.09;102444.00;4949322;28;20023;-80
2023/10/08 08:24:44;;;;;;;13.07;5.60;;;;;;;15.40;92.09;102439.50;4949890;29;20081;-80
2023/10/08 08:27:31;;;;;;;13.32;5.93;;;;;;;15.46;92.28;102455.97;4950571;28;20027;-79
2023/10/08 08:30:01;;;;;;;13.80;5.93;;;;;;;15.51;92.20;102465.53;4949644;29;20519;-79
2023/10/08 08:32:28;;;;;;;13.02;6.05;;;;;;;15.53;92.39;102471.59;4942892;29;20038;-81
2023/10/08 08:34:53;;;;;;;17.98;6.35;;;;;;;15.53;92.56;102469.84;4951545;29;20027;-81
2023/10/08 08:37:22;;;;;;;14.27;6.20;;;;;;;15.54;92.87;102475.94;4948319;28;20023;-80
2023/10/08 08:39:48;;;;;;;13.70;5.60;;;;;;;15.54;93.14;102473.31;4950733;29;20034;-79
2023/10/08 08:42:14;;;;;;;14.52;6.32;;;;;;;15.55;93.51;102486.41;4947294;28;20107;-80
2023/10/08 08:44:46;;;;;;;14.00;6.20;;;;;;;15.57;94.29;102489.88;4952696;29;20069;-81
2023/10/08 08:47:17;;;;;;;14.35;5.75;;;;;;;15.60;93.90;102487.19;4949556;29;20030;-80
2023/10/08 08:49:44;;;;;;;12.18;5.70;;;;;;;15.63;93.56;102494.13;4948854;29;20383;-81
2023/10/08 08:52:09;;;;;;;14.35;5.50;;;;;;;15.65;93.90;102491.47;4947643;28;20171;-81
2023/10/08 08:54:36;;;;;;;13.88;6.18;;;;;;;15.69;94.12;102485.28;4951258;28;20532;-80
2023/10/08 08:57:12;;;;;;;17.15;5.78;;;;;;;15.70;93.90;102485.22;4941300;29;20398;-80
2023/10/08 08:59:39;;;;;;;14.80;5.60;;;;;;;15.73;93.77;102492.16;4940637;29;20027;-80
2023/10/08 09:02:07;;;;;;;16.50;5.55;;;;;;;15.73;93.55;102484.28;4944408;28;20031;-80
2023/10/08 09:04:33;;;;;;;14.30;5.25;;;;;;;15.73;93.94;102490.41;4944953;29;20035;-80
2023/10/08 09:07:04;;;;;;;13.10;5.35;;;;;;;15.75;94.12;102493.88;4948999;29;20031;-80
2023/10/08 09:09:44;;;;;;;12.07;5.25;;;;;;;15.78;93.93;102490.31;4949009;29;20031;-80
2023/10/08 09:12:10;;;;;;;13.00;5.03;;;;;;;15.80;93.98;102487.69;4948169;28;20032;-80
2023/10/08 09:14:36;;;;;;;12.38;5.13;;;;;;;15.81;93.73;102492.88;4936789;28;20035;-80
2023/10/08 09:17:04;;;;;;;15.20;5.18;;;;;;;15.83;93.84;102498.97;4949299;29;20027;-79
2023/10/08 09:19:29;;;;;;;14.07;5.35;;;;;;;15.86;93.55;102501.56;4952009;29;20051;-79
2023/10/08 09:22:06;;;;;;;11.18;5.13;;;;;;;15.88;93.96;102509.38;4949814;28;20038;-80
2023/10/08 09:24:33;;;;;;;14.70;5.10;;;;;;;15.93;93.98;102503.13;4939742;29;20035;-80
2023/10/08 09:26:59;;;;;;;12.68;5.25;;;;;;;15.99;94.33;102506.53;4948953;28;20035;-80
2023/10/08 09:29:26;;;;;;;11.20;5.28;;;;;;;16.05;93.84;102512.50;4945563;28;20031;-80
2023/10/08 09:31:59;;;;;;;12.23;4.95;;;;;;;16.10;93.62;102515.03;4946105;29;20479;-80
2023/10/08 09:34:30;;;;;;;12.40;5.05;;;;;;;16.13;93.07;102509.72;4951469;28;20039;-80
2023/10/08 09:36:56;;;;;;;;;;;;;;;16.18;91.47;102507.88;4951480;28;20118;-80
2023/10/08 09:39:23;;;;;;;8.23;4.50;;;;;;;16.18;92.16;102499.97;4940767;29;20009;-80
2023/10/08 09:41:53;;;;;;;10.00;5.10;;;;;;;16.22;92.76;102506.91;4942281;29;20376;-80
2023/10/08 09:44:19;;;;;;;11.55;5.10;;;;;;;16.26;91.99;102510.31;4943013;29;20027;-81
2023/10/08 09:46:51;;;;;;;11.93;5.50;;;;;;;16.27;92.02;102512.03;4948561;29;20027;-80
2023/10/08 09:49:19;;;;;;;10.25;4.95;;;;;;;16.26;91.59;102507.69;4949554;28;20035;-81
2023/10/08 09:51:46;;;;;;;10.32;4.82;;;;;;;16.24;90.99;102507.69;4935038;29;20032;-81
2023/10/08 09:54:18;;;;;;;8.32;4.65;;;;;;;16.24;91.82;102502.44;4948581;29;20495;-81
2023/10/08 09:56:44;;;;;;;9.13;4.70;;;;;;;16.26;91.64;102496.31;4951299;28;20019;-80
2023/10/08 09:59:10;;;;;;;8.52;4.65;;;;;;;16.28;91.33;102497.13;4953705;28;20490;-80
2023/10/08 10:01:40;;;;;;;9.07;5.30;;;;;;;16.26;90.75;102493.69;4953253;28;20035;-80
2023/10/08 10:04:10;;;;;;;8.57;4.57;;;;;;;16.27;91.04;102491.03;4953534;28;20027;-81
2023/10/08 10:06:36;;;;;;;9.65;4.45;;;;;;;16.28;90.78;102489.25;4950001;28;20031;-81
2023/10/08 10:09:01;;;;;;;8.40;4.15;;;;;;;16.28;90.91;102487.50;4949543;28;20106;-80
2023/10/08 10:11:28;;;;;;;8.18;4.60;;;;;;;16.31;90.57;102492.66;4951938;29;20046;-80
2023/10/08 10:14:01;;;;;;;6.43;3.65;;;;;;;16.33;90.42;102490.88;4956022;28;20149;-81
2023/10/08 10:16:27;;;;;;;8.20;3.65;;;;;;;16.34;90.41;102491.75;4944846;28;20079;-80
2023/10/08 10:18:57;;;;;;;7.63;3.60;;;;;;;16.38;90.32;102503.91;4935927;29;20032;-80
2023/10/08 10:21:28;;;;;;;7.47;3.63;;;;;;;16.37;89.72;102507.44;4937829;29;20087;-81
2023/10/08 10:23:56;;;;;;;8.07;3.60;;;;;;;16.34;89.20;102507.50;4934292;29;20044;-81
2023/10/08 10:26:30;;;;;;;7.10;3.70;;;;;;;16.26;89.66;102506.81;4937292;29;20020;-81
2023/10/08 10:29:08;;;;;;;9.98;3.80;;;;;;;16.23;89.73;102511.22;4939540;29;20031;-81
2023/10/08 10:31:34;;;;;;;7.10;3.47;;;;;;;16.21;90.45;102499.91;4935265;29;20048;-81
2023/10/08 10:34:08;;;;;;;7.40;3.30;;;;;;;16.18;90.31;102492.09;4934155;29;20031;-81
2023/10/08 10:36:33;;;;;;;7.95;3.30;;;;;;;16.18;89.80;102493.84;4940956;29;20084;-81
2023/10/08 10:38:59;;;;;;;8.88;3.45;;;;;;;16.21;89.84;102491.16;4952689;29;20031;-80
2023/10/08 10:41:24;;;;;;;5.68;3.10;;;;;;;16.28;90.30;102491.88;4948634;29;20439;-80
2023/10/08 10:43:52;;;;;;;8.05;3.38;;;;;;;16.36;90.15;102497.84;4937052;28;20035;-80
2023/10/08 10:46:29;;;;;;;6.47;3.10;;;;;;;16.45;90.36;102505.47;4935426;29;20032;-81
2023/10/08 10:49:07;;;;;;;7.03;3.20;;;;;;;16.49;88.81;102512.41;4942137;29;20039;-81
2023/10/08 10:51:33;;;;;;;7.38;3.25;;;;;;;16.49;89.37;102511.50;4938460;29;20031;-81
2023/10/08 10:54:08;;;;;;;5.85;3.47;;;;;;;16.47;88.17;102514.19;4934502;29;20431;-80
2023/10/08 10:56:40;;;;;;;5.20;3.15;;;;;;;16.44;88.19;102514.25;4952705;29;20027;-83
2023/10/08 10:59:22;;;;;;;6.60;3.17;;;;;;;16.41;88.77;102510.84;4942585;29;20491;-80
2023/10/08 11:01:52;;;;;;;8.38;3.20;;;;;;;16.43;88.14;102516.94;4950980;29;20035;-80
2023/10/08 11:04:19;;;;;;;6.13;3.05;;;;;;;16.48;88.83;102518.53;4952767;28;20023;-80
2023/10/08 11:06:50;;;;;;;7.50;3.30;;;;;;;16.57;89.04;102514.84;4951021;28;20028;-80
2023/10/08 11:09:17;;;;;;;6.65;3.28;;;;;;;16.66;88.64;102519.00;4956090;28;20114;-81
2023/10/08 11:11:45;;;;;;;5.20;2.72;;;;;;;16.68;87.47;102517.22;4954740;28;20035;-81
2023/10/08 11:14:18;;;;;;;7.25;3.30;;;;;;;16.66;87.65;102519.00;4955707;28;20023;-81
2023/10/08 11:16:44;;;;;;;6.50;2.83;;;;;;;16.64;87.83;102518.19;4955831;28;20033;-81
2023/10/08 11:19:11;;;;;;;5.57;2.92;;;;;;;16.59;87.24;102513.03;4943942;29;20031;-81
2023/10/08 11:21:53;;;;;;;6.85;3.13;;;;;;;16.60;87.52;102508.63;4955953;28;20106;-81
2023/10/08 11:24:34;;;;;;;6.07;2.88;;;;;;;16.60;87.58;102512.13;4955799;28;20027;-80
2023/10/08 11:27:46;;;;;;;5.72;2.72;;;;;;;16.60;87.32;102513.88;4949127;28;20038;-80
2023/10/08 11:29:48;;;;;;;6.22;2.95;;;;;;;16.61;87.64;102511.25;4948553;28;20054;-81
2023/10/08 11:32:22;;;;;;;8.85;3.45;;;;;;;16.61;86.97;102492.84;4955446;28;20031;-80
2023/10/08 11:34:50;;;;;;;7.00;3.17;;;;;;;16.61;87.61;102492.84;4955093;29;20027;-80
2023/10/08 11:37:35;;;;;;;6.35;3.50;;;;;;;16.63;87.29;102482.28;4951189;28;20498;-81
2023/10/08 11:40:17;;;;;;;7.18;3.35;;;;;;;16.68;87.72;102485.66;4938203;29;20047;-80
2023/10/08 11:42:43;;;;;;;6.75;3.80;;;;;;;16.73;87.37;102483.78;4936759;29;20023;-81
2023/10/08 11:45:23;;;;;;;8.13;3.50;;;;;;;16.77;87.74;102490.69;4944268;29;20043;-81
2023/10/08 11:47:49;;;;;;;6.25;3.75;;;;;;;16.86;88.29;102486.09;4955117;28;20035;-80
2023/10/08 11:50:19;;;;;;;5.88;3.67;;;;;;;16.91;87.09;102486.84;4940456;29;20082;-80
2023/10/08 11:52:45;;;;;;;8.65;4.07;;;;;;;16.97;86.42;102494.59;4955726;28;20045;-80
2023/10/08 11:55:30;;;;;;;5.78;3.88;;;;;;;16.99;86.37;102488.38;4955917;28;20031;-80
2023/10/08 11:57:57;;;;;;;6.53;3.97;;;;;;;16.97;86.50;102486.72;4952166;28;20058;-80
2023/10/08 12:00:25;;;;;;;8.77;4.18;;;;;;;16.96;86.42;102485.88;4946551;28;20036;-80
2023/10/08 12:02:54;;;;;;;6.55;3.63;;;;;;;16.97;87.07;102481.44;4947639;29;20114;-81
2023/10/08 12:05:20;;;;;;;6.65;4.15;;;;;;;17.01;86.92;102475.22;4954340;29;20033;-81
2023/10/08 12:07:52;;;;;;;4.47;3.33;;;;;;;17.06;86.94;102468.06;4951805;28;20032;-81
2023/10/08 12:10:22;;;;;;;5.65;3.58;;;;;;;17.08;86.57;102468.03;4950648;29;20031;-81
2023/10/08 12:12:52;;;;;;;6.70;3.45;;;;;;;17.08;86.63;102460.97;4955283;28;20023;-81
2023/10/08 12:15:19;;;;;;;5.35;3.17;;;;;;;17.11;86.38;102465.31;4954156;28;20073;-81
2023/10/08 12:20:34;;;;;;;7.53;2.72;;;;;;;17.10;85.92;102458.31;4949777;29;20042;-81
2023/10/08 12:22:59;;;;;;;6.55;2.75;;;;;;;17.09;86.88;102448.72;4966317;28;20023;-81
2023/10/08 12:25:25;;;;;;;5.05;2.83;;;;;;;17.08;86.59;102453.09;4945569;29;20035;-81
2023/10/08 12:27:50;;;;;;;6.07;2.72;;;;;;;17.08;86.33;102458.34;4947747;29;20028;-81
2023/10/08 12:30:15;;;;;;;6.32;2.80;;;;;;;17.05;86.21;102455.84;4949245;29;20054;-81